sensor_id;sensor_type;location;lat;lon;timestamp;pressure;altitude;pressure_sealevel;temperature;humidity
50125;BME280;36023;48.670;6.184;2023-03-23T00:00:00;98265.13;;;17.89;41.99
50125;BME280;36023;48.670;6.184;2023-03-23T00:02:27;98268.69;;;17.88;41.89
50125;BME280;36023;48.670;6.184;2023-03-23T00:04:54;98261.66;;;17.89;41.97
50125;BME280;36023;48.670;6.184;2023-03-23T00:07:21;98260.72;;;17.90;41.96
50125;BME280;36023;48.670;6.184;2023-03-23T00:09:54;98265.97;;;17.90;41.85
50125;BME280;36023;48.670;6.184;2023-03-23T00:12:21;98266.91;;;17.89;41.83
50125;BME280;36023;48.670;6.184;2023-03-23T00:15:07;98275.59;;;17.89;41.89
50125;BME280;36023;48.670;6.184;2023-03-23T00:17:34;98272.13;;;17.89;41.89
50125;BME280;36023;48.670;6.184;2023-03-23T00:20:00;98277.38;;;17.89;41.70
50125;BME280;36023;48.670;6.184;2023-03-23T00:22:27;98274.75;;;17.89;41.84
50125;BME280;36023;48.670;6.184;2023-03-23T00:24:53;98274.75;;;17.89;41.68
50125;BME280;36023;48.670;6.184;2023-03-23T00:27:20;98270.34;;;17.89;41.69
50125;BME280;36023;48.670;6.184;2023-03-23T00:29:51;98272.06;;;17.90;41.65
50125;BME280;36023;48.670;6.184;2023-03-23T00:32:19;98265.22;;;17.88;41.62
50125;BME280;36023;48.670;6.184;2023-03-23T00:34:46;98269.50;;;17.89;41.79
50125;BME280;36023;48.670;6.184;2023-03-23T00:37:14;98258.19;;;17.88;41.63
50125;BME280;36023;48.670;6.184;2023-03-23T00:39:42;98246.88;;;17.88;41.54
50125;BME280;36023;48.670;6.184;2023-03-23T00:42:10;98259.97;;;17.88;41.85
50125;BME280;36023;48.670;6.184;2023-03-23T00:44:38;98260.91;;;17.87;41.50
50125;BME280;36023;48.670;6.184;2023-03-23T00:47:05;98241.63;;;17.88;41.45
50125;BME280;36023;48.670;6.184;2023-03-23T00:49:34;98219.84;;;17.87;41.52
50125;BME280;36023;48.670;6.184;2023-03-23T00:52:00;98230.31;;;17.87;41.63
50125;BME280;36023;48.670;6.184;2023-03-23T00:54:27;98229.50;;;17.87;41.32
50125;BME280;36023;48.670;6.184;2023-03-23T00:56:56;98226.03;;;17.86;41.52
50125;BME280;36023;48.670;6.184;2023-03-23T00:59:22;98227.72;;;17.87;41.69
50125;BME280;36023;48.670;6.184;2023-03-23T01:01:50;98229.50;;;17.87;41.36
50125;BME280;36023;48.670;6.184;2023-03-23T01:04:16;98230.44;;;17.86;41.47
50125;BME280;36023;48.670;6.184;2023-03-23T01:06:43;98233.88;;;17.86;41.38
50125;BME280;36023;48.670;6.184;2023-03-23T01:09:13;98238.28;;;17.86;41.49
50125;BME280;36023;48.670;6.184;2023-03-23T01:11:43;98247.81;;;17.87;41.44
50125;BME280;36023;48.670;6.184;2023-03-23T01:14:11;98239.13;;;17.86;41.25
50125;BME280;36023;48.670;6.184;2023-03-23T01:16:37;98240.06;;;17.85;41.52
50125;BME280;36023;48.670;6.184;2023-03-23T01:19:04;98246.16;;;17.86;41.36
50125;BME280;36023;48.670;6.184;2023-03-23T01:21:30;98242.69;;;17.85;41.25
50125;BME280;36023;48.670;6.184;2023-03-23T01:23:55;98238.28;;;17.86;41.38
50125;BME280;36023;48.670;6.184;2023-03-23T01:26:23;98230.44;;;17.86;41.37
50125;BME280;36023;48.670;6.184;2023-03-23T01:28:50;98225.19;;;17.86;41.21
50125;BME280;36023;48.670;6.184;2023-03-23T01:31:19;98229.59;;;17.85;41.13
50125;BME280;36023;48.670;6.184;2023-03-23T01:33:45;98226.97;;;17.85;41.24
50125;BME280;36023;48.670;6.184;2023-03-23T01:36:14;98228.66;;;17.86;41.15
50125;BME280;36023;48.670;6.184;2023-03-23T01:38:43;98227.81;;;17.86;41.18
50125;BME280;36023;48.670;6.184;2023-03-23T01:41:16;98228.66;;;17.86;41.28
50125;BME280;36023;48.670;6.184;2023-03-23T01:43:59;98233.06;;;17.86;41.24
50125;BME280;36023;48.670;6.184;2023-03-23T01:46:31;98237.44;;;17.85;41.23
50125;BME280;36023;48.670;6.184;2023-03-23T01:49:04;98235.66;;;17.86;41.15
50125;BME280;36023;48.670;6.184;2023-03-23T01:51:39;98227.81;;;17.86;41.11
50125;BME280;36023;48.670;6.184;2023-03-23T01:54:09;98222.56;;;17.86;41.16
50125;BME280;36023;48.670;6.184;2023-03-23T01:56:43;98226.97;;;17.85;41.17
50125;BME280;36023;48.670;6.184;2023-03-23T01:59:11;98238.28;;;17.86;41.16
50125;BME280;36023;48.670;6.184;2023-03-23T02:01:43;98219.94;;;17.86;41.26
50125;BME280;36023;48.670;6.184;2023-03-23T02:04:12;98212.09;;;17.86;41.13
50125;BME280;36023;48.670;6.184;2023-03-23T02:06:43;98224.25;;;17.87;41.22
50125;BME280;36023;48.670;6.184;2023-03-23T02:09:14;98223.50;;;17.85;41.11
50125;BME280;36023;48.670;6.184;2023-03-23T02:11:45;98227.81;;;17.86;41.23
50125;BME280;36023;48.670;6.184;2023-03-23T02:14:11;98227.81;;;17.86;41.10
50125;BME280;36023;48.670;6.184;2023-03-23T02:36:39;98217.53;;;17.83;41.12
50125;BME280;36023;48.670;6.184;2023-03-23T02:39:14;98220.06;;;17.84;41.03
50125;BME280;36023;48.670;6.184;2023-03-23T02:41:50;98226.13;;;17.85;41.18
50125;BME280;36023;48.670;6.184;2023-03-23T02:44:17;98220.16;;;17.83;41.16
50125;BME280;36023;48.670;6.184;2023-03-23T02:46:44;98218.38;;;17.83;41.21
50125;BME280;36023;48.670;6.184;2023-03-23T02:49:12;98221.00;;;17.83;41.27
50125;BME280;36023;48.670;6.184;2023-03-23T02:51:44;98229.69;;;17.84;41.05
50125;BME280;36023;48.670;6.184;2023-03-23T02:54:13;98225.41;;;17.83;41.13
50125;BME280;36023;48.670;6.184;2023-03-23T02:56:41;98234.94;;;17.84;41.25
50125;BME280;36023;48.670;6.184;2023-03-23T02:59:17;98233.25;;;17.83;41.30
50125;BME280;36023;48.670;6.184;2023-03-23T03:04:17;98239.34;;;17.83;41.21
50125;BME280;36023;48.670;6.184;2023-03-23T03:12:17;98232.41;;;17.82;41.27
50125;BME280;36023;48.670;6.184;2023-03-23T03:15:07;98235.88;;;17.83;41.34
50125;BME280;36023;48.670;6.184;2023-03-23T03:17:38;98235.03;;;17.82;41.15
50125;BME280;36023;48.670;6.184;2023-03-23T03:20:09;98227.19;;;17.82;41.37
50125;BME280;36023;48.670;6.184;2023-03-23T03:22:39;98221.94;;;17.82;41.35
50125;BME280;36023;48.670;6.184;2023-03-23T03:25:14;98228.09;;;17.81;41.38
50125;BME280;36023;48.670;6.184;2023-03-23T03:27:43;98221.06;;;17.81;41.29
50125;BME280;36023;48.670;6.184;2023-03-23T03:30:21;98227.19;;;17.82;41.22
50125;BME280;36023;48.670;6.184;2023-03-23T03:32:51;98225.47;;;17.81;41.29
50125;BME280;36023;48.670;6.184;2023-03-23T03:35:21;98226.31;;;17.81;41.45
50125;BME280;36023;48.670;6.184;2023-03-23T03:37:49;98231.53;;;17.81;41.31
50125;BME280;36023;48.670;6.184;2023-03-23T03:40:20;98221.06;;;17.81;41.28
50125;BME280;36023;48.670;6.184;2023-03-23T03:42:46;98223.69;;;17.81;41.21
50125;BME280;36023;48.670;6.184;2023-03-23T03:45:19;98221.06;;;17.81;41.28
50125;BME280;36023;48.670;6.184;2023-03-23T03:47:45;98226.31;;;17.81;41.28
50125;BME280;36023;48.670;6.184;2023-03-23T03:50:11;98218.44;;;17.81;41.25
50125;BME280;36023;48.670;6.184;2023-03-23T03:52:37;98206.22;;;17.82;41.29
50125;BME280;36023;48.670;6.184;2023-03-23T03:55:05;98204.44;;;17.83;41.38
50125;BME280;36023;48.670;6.184;2023-03-23T03:57:34;98209.75;;;17.81;41.35
50125;BME280;36023;48.670;6.184;2023-03-23T04:00:05;98208.84;;;17.82;41.42
50125;BME280;36023;48.670;6.184;2023-03-23T04:02:47;98207.97;;;17.81;41.29
50125;BME280;36023;48.670;6.184;2023-03-23T04:05:18;98197.50;;;17.81;41.28
50125;BME280;36023;48.670;6.184;2023-03-23T04:07:49;98212.38;;;17.81;41.36
50125;BME280;36023;48.670;6.184;2023-03-23T04:10:18;98205.34;;;17.81;41.41
50125;BME280;36023;48.670;6.184;2023-03-23T04:12:48;98194.03;;;17.81;41.33
50125;BME280;36023;48.670;6.184;2023-03-23T04:15:37;98196.66;;;17.81;41.35
50125;BME280;36023;48.670;6.184;2023-03-23T04:18:04;98201.91;;;17.81;41.39
50125;BME280;36023;48.670;6.184;2023-03-23T04:20:31;98204.50;;;17.81;41.43
50125;BME280;36023;48.670;6.184;2023-03-23T04:22:57;98208.91;;;17.80;41.42
50125;BME280;36023;48.670;6.184;2023-03-23T04:25:24;98215.00;;;17.81;41.39
50125;BME280;36023;48.670;6.184;2023-03-23T04:27:52;98218.56;;;17.80;41.42
50125;BME280;36023;48.670;6.184;2023-03-23T04:30:24;98218.56;;;17.80;41.33
50125;BME280;36023;48.670;6.184;2023-03-23T04:33:02;98227.19;;;17.82;41.46
50125;BME280;36023;48.670;6.184;2023-03-23T04:35:29;98215.94;;;17.80;41.52
50125;BME280;36023;48.670;6.184;2023-03-23T04:38:08;98227.25;;;17.80;41.40
50125;BME280;36023;48.670;6.184;2023-03-23T04:40:36;98228.09;;;17.81;41.42
50125;BME280;36023;48.670;6.184;2023-03-23T04:43:23;98228.19;;;17.79;41.45
50125;BME280;36023;48.670;6.184;2023-03-23T04:45:56;98236.88;;;17.80;41.39
50125;BME280;36023;48.670;6.184;2023-03-23T04:48:24;98235.09;;;17.80;41.58
50125;BME280;36023;48.670;6.184;2023-03-23T04:51:02;98242.97;;;17.80;41.48
50125;BME280;36023;48.670;6.184;2023-03-23T04:53:32;98250.81;;;17.80;41.55
50125;BME280;36023;48.670;6.184;2023-03-23T04:55:58;98252.59;;;17.80;41.35
50125;BME280;36023;48.670;6.184;2023-03-23T04:58:28;98258.78;;;17.79;41.49
50125;BME280;36023;48.670;6.184;2023-03-23T05:01:10;98259.63;;;17.79;41.49
50125;BME280;36023;48.670;6.184;2023-03-23T05:03:44;98256.16;;;17.79;41.49
50125;BME280;36023;48.670;6.184;2023-03-23T05:06:10;98266.63;;;17.79;41.46
50125;BME280;36023;48.670;6.184;2023-03-23T05:08:37;98258.78;;;17.79;41.58
50125;BME280;36023;48.670;6.184;2023-03-23T05:11:05;98271.03;;;17.78;41.54
50125;BME280;36023;48.670;6.184;2023-03-23T05:13:34;98263.19;;;17.78;41.48
50125;BME280;36023;48.670;6.184;2023-03-23T05:16:04;98260.47;;;17.80;41.55
50125;BME280;36023;48.670;6.184;2023-03-23T05:18:31;98266.63;;;17.79;41.69
50125;BME280;36023;48.670;6.184;2023-03-23T05:21:00;98265.81;;;17.78;41.50
50125;BME280;36023;48.670;6.184;2023-03-23T05:23:26;98269.34;;;17.77;41.67
50125;BME280;36023;48.670;6.184;2023-03-23T05:26:00;98263.19;;;17.78;41.54
50125;BME280;36023;48.670;6.184;2023-03-23T05:28:28;98262.34;;;17.78;41.64
50125;BME280;36023;48.670;6.184;2023-03-23T05:31:22;98257.94;;;17.78;41.70
50125;BME280;36023;48.670;6.184;2023-03-23T05:33:49;98260.56;;;17.78;41.58
50125;BME280;36023;48.670;6.184;2023-03-23T05:36:21;98266.75;;;17.77;41.72
50125;BME280;36023;48.670;6.184;2023-03-23T05:39:14;98252.50;;;17.81;42.45
50125;BME280;36023;48.670;6.184;2023-03-23T05:42:08;98259.44;;;17.83;42.28
50125;BME280;36023;48.670;6.184;2023-03-23T05:44:57;98260.19;;;17.85;42.35
50125;BME280;36023;48.670;6.184;2023-03-23T05:47:24;98265.22;;;17.88;42.33
50125;BME280;36023;48.670;6.184;2023-03-23T05:49:55;98266.72;;;17.92;42.42
50125;BME280;36023;48.670;6.184;2023-03-23T05:52:23;98274.19;;;17.98;42.54
50125;BME280;36023;48.670;6.184;2023-03-23T05:54:52;98268.75;;;18.01;42.50
50125;BME280;36023;48.670;6.184;2023-03-23T05:57:23;98277.19;;;18.06;42.57
50125;BME280;36023;48.670;6.184;2023-03-23T06:00:00;98281.38;;;18.08;42.33
50125;BME280;36023;48.670;6.184;2023-03-23T06:02:39;98285.47;;;18.13;42.51
50125;BME280;36023;48.670;6.184;2023-03-23T06:05:09;98290.44;;;18.17;42.48
50125;BME280;36023;48.670;6.184;2023-03-23T06:07:38;98294.63;;;18.20;42.47
50125;BME280;36023;48.670;6.184;2023-03-23T06:10:07;98294.56;;;18.21;42.48
50125;BME280;36023;48.670;6.184;2023-03-23T06:12:38;98297.81;;;18.25;42.31
50125;BME280;36023;48.670;6.184;2023-03-23T06:15:17;98293.19;;;18.28;42.30
50125;BME280;36023;48.670;6.184;2023-03-23T06:18:09;98289.66;;;18.29;42.43
50125;BME280;36023;48.670;6.184;2023-03-23T06:20:44;98306.13;;;18.31;42.44
50125;BME280;36023;48.670;6.184;2023-03-23T06:23:26;98316.50;;;18.33;42.33
50125;BME280;36023;48.670;6.184;2023-03-23T06:25:58;98314.56;;;18.36;42.33
50125;BME280;36023;48.670;6.184;2023-03-23T06:28:25;98311.94;;;18.36;42.50
50125;BME280;36023;48.670;6.184;2023-03-23T06:30:53;98323.16;;;18.38;42.29
50125;BME280;36023;48.670;6.184;2023-03-23T06:33:19;98320.41;;;18.40;42.18
50125;BME280;36023;48.670;6.184;2023-03-23T06:36:17;98321.16;;;18.42;42.13
50125;BME280;36023;48.670;6.184;2023-03-23T06:39:11;98331.47;;;18.45;42.19
50125;BME280;36023;48.670;6.184;2023-03-23T06:42:18;98330.63;;;18.45;42.20
50125;BME280;36023;48.670;6.184;2023-03-23T06:44:51;98325.28;;;18.46;42.20
50125;BME280;36023;48.670;6.184;2023-03-23T06:47:17;98336.50;;;18.48;42.14
50125;BME280;36023;48.670;6.184;2023-03-23T06:49:46;98336.50;;;18.48;42.13
50125;BME280;36023;48.670;6.184;2023-03-23T06:52:23;98314.47;;;18.51;42.24
50125;BME280;36023;48.670;6.184;2023-03-23T06:54:50;98319.72;;;18.51;42.16
50125;BME280;36023;48.670;6.184;2023-03-23T06:57:19;98326.66;;;18.52;42.09
50125;BME280;36023;48.670;6.184;2023-03-23T06:59:47;98332.66;;;18.54;42.08
50125;BME280;36023;48.670;6.184;2023-03-23T07:02:14;98340.53;;;18.54;42.17
50125;BME280;36023;48.670;6.184;2023-03-23T07:04:41;98346.50;;;18.56;42.24
50125;BME280;36023;48.670;6.184;2023-03-23T07:07:17;98343.78;;;18.57;42.14
50125;BME280;36023;48.670;6.184;2023-03-23T07:09:57;98350.81;;;18.57;42.19
50125;BME280;36023;48.670;6.184;2023-03-23T07:12:24;98350.69;;;18.58;42.11
50125;BME280;36023;48.670;6.184;2023-03-23T07:14:52;98355.00;;;18.59;42.08
50125;BME280;36023;48.670;6.184;2023-03-23T07:17:18;98364.47;;;18.62;42.18
50125;BME280;36023;48.670;6.184;2023-03-23T07:19:59;98364.47;;;18.62;42.10
50125;BME280;36023;48.670;6.184;2023-03-23T07:22:25;98370.56;;;18.62;42.09
50125;BME280;36023;48.670;6.184;2023-03-23T07:24:58;98381.88;;;18.63;42.09
50125;BME280;36023;48.670;6.184;2023-03-23T07:27:31;98383.56;;;18.64;42.06
50125;BME280;36023;48.670;6.184;2023-03-23T07:29:59;98380.94;;;18.64;42.11
50125;BME280;36023;48.670;6.184;2023-03-23T07:32:25;98395.75;;;18.65;42.23
50125;BME280;36023;48.670;6.184;2023-03-23T07:34:52;98401.84;;;18.65;42.24
50125;BME280;36023;48.670;6.184;2023-03-23T07:37:28;98409.63;;;18.67;42.25
50125;BME280;36023;48.670;6.184;2023-03-23T07:39:55;98405.22;;;18.68;42.29
50125;BME280;36023;48.670;6.184;2023-03-23T07:42:22;98412.16;;;18.69;42.34
50125;BME280;36023;48.670;6.184;2023-03-23T07:44:56;98408.59;;;18.70;42.40
50125;BME280;36023;48.670;6.184;2023-03-23T07:47:22;98413.75;;;18.71;42.48
50125;BME280;36023;48.670;6.184;2023-03-23T07:49:48;98407.56;;;18.72;42.76
50125;BME280;36023;48.670;6.184;2023-03-23T07:52:28;98409.78;;;18.78;43.34
50125;BME280;36023;48.670;6.184;2023-03-23T07:54:56;98400.78;;;18.82;43.81
50125;BME280;36023;48.670;6.184;2023-03-23T07:57:41;98399.66;;;18.86;44.22
50125;BME280;36023;48.670;6.184;2023-03-23T08:00:08;98400.28;;;18.90;44.89
50125;BME280;36023;48.670;6.184;2023-03-23T08:02:47;98407.13;;;18.92;45.14
50125;BME280;36023;48.670;6.184;2023-03-23T08:05:30;98408.06;;;18.91;45.21
50125;BME280;36023;48.670;6.184;2023-03-23T08:08:29;98402.81;;;18.91;45.49
50125;BME280;36023;48.670;6.184;2023-03-23T08:11:30;98404.50;;;18.92;45.69
50125;BME280;36023;48.670;6.184;2023-03-23T08:14:17;98403.75;;;18.90;46.21
50125;BME280;36023;48.670;6.184;2023-03-23T08:17:06;98407.41;;;18.88;46.35
50125;BME280;36023;48.670;6.184;2023-03-23T08:19:55;98415.19;;;18.89;47.52
50125;BME280;36023;48.670;6.184;2023-03-23T08:22:52;98403.22;;;18.85;46.78
50125;BME280;36023;48.670;6.184;2023-03-23T08:25:50;98408.56;;;18.84;47.15
50125;BME280;36023;48.670;6.184;2023-03-23T08:28:30;98411.38;;;18.81;47.11
50125;BME280;36023;48.670;6.184;2023-03-23T08:31:24;98413.16;;;18.80;47.21
50125;BME280;36023;48.670;6.184;2023-03-23T08:34:08;98417.78;;;18.77;47.34
50125;BME280;36023;48.670;6.184;2023-03-23T08:36:46;98411.75;;;18.75;47.20
50125;BME280;36023;48.670;6.184;2023-03-23T08:39:30;98409.22;;;18.73;47.62
50125;BME280;36023;48.670;6.184;2023-03-23T08:42:17;98407.66;;;18.71;47.32
50125;BME280;36023;48.670;6.184;2023-03-23T08:45:24;98411.22;;;18.70;47.52
50125;BME280;36023;48.670;6.184;2023-03-23T08:48:09;98414.88;;;18.67;47.57
50125;BME280;36023;48.670;6.184;2023-03-23T08:51:11;98415.88;;;18.64;47.69
50125;BME280;36023;48.670;6.184;2023-03-23T08:53:58;98425.53;;;18.64;47.93
50125;BME280;36023;48.670;6.184;2023-03-23T08:56:43;98419.66;;;18.60;47.71
50125;BME280;36023;48.670;6.184;2023-03-23T08:59:30;98420.56;;;18.59;47.91
50125;BME280;36023;48.670;6.184;2023-03-23T09:02:02;98428.53;;;18.58;47.83
50125;BME280;36023;48.670;6.184;2023-03-23T09:04:57;98433.03;;;18.56;47.72
50125;BME280;36023;48.670;6.184;2023-03-23T09:07:45;98431.34;;;18.55;47.81
50125;BME280;36023;48.670;6.184;2023-03-23T09:10:12;98445.50;;;18.52;48.16
50125;BME280;36023;48.670;6.184;2023-03-23T09:12:39;98450.75;;;18.52;47.63
50125;BME280;36023;48.670;6.184;2023-03-23T09:15:06;98448.13;;;18.52;47.87
50125;BME280;36023;48.670;6.184;2023-03-23T09:17:39;98460.31;;;18.53;47.81
50125;BME280;36023;48.670;6.184;2023-03-23T09:20:07;98455.06;;;18.53;48.03
50125;BME280;36023;48.670;6.184;2023-03-23T09:22:43;98456.06;;;18.51;47.60
50125;BME280;36023;48.670;6.184;2023-03-23T09:25:12;98468.53;;;18.47;47.94
50125;BME280;36023;48.670;6.184;2023-03-23T09:27:38;98477.47;;;18.45;47.92
50125;BME280;36023;48.670;6.184;2023-03-23T09:30:14;98475.75;;;18.44;48.00
50125;BME280;36023;48.670;6.184;2023-03-23T09:32:40;98461.91;;;18.42;47.95
50125;BME280;36023;48.670;6.184;2023-03-23T09:35:07;98480.44;;;18.38;47.76
50125;BME280;36023;48.670;6.184;2023-03-23T09:37:42;98478.94;;;18.34;47.89
50125;BME280;36023;48.670;6.184;2023-03-23T09:40:19;98483.25;;;18.35;48.18
50125;BME280;36023;48.670;6.184;2023-03-23T09:45:37;98501.53;;;18.37;47.97
50125;BME280;36023;48.670;6.184;2023-03-23T09:48:48;98490.94;;;18.38;47.98
50125;BME280;36023;48.670;6.184;2023-03-23T09:51:02;98484.94;;;18.36;48.22
50125;BME280;36023;48.670;6.184;2023-03-23T09:53:38;98483.25;;;18.35;48.06
50125;BME280;36023;48.670;6.184;2023-03-23T09:56:12;98487.63;;;18.35;48.06
50125;BME280;36023;48.670;6.184;2023-03-23T09:58:58;98484.28;;;18.33;48.08
50125;BME280;36023;48.670;6.184;2023-03-23T10:01:30;98491.31;;;18.32;48.16
50125;BME280;36023;48.670;6.184;2023-03-23T10:04:14;98493.19;;;18.30;48.18
50125;BME280;36023;48.670;6.184;2023-03-23T10:06:42;98489.63;;;18.31;48.08
50125;BME280;36023;48.670;6.184;2023-03-23T10:09:15;98491.31;;;18.32;48.25
50125;BME280;36023;48.670;6.184;2023-03-23T10:11:53;98487.94;;;18.30;48.28
50125;BME280;36023;48.670;6.184;2023-03-23T10:17:16;98490.56;;;18.30;48.28
50125;BME280;36023;48.670;6.184;2023-03-23T10:22:41;98494.88;;;18.31;48.38
50125;BME280;36023;48.670;6.184;2023-03-23T10:27:45;98487.16;;;18.28;48.43
50125;BME280;36023;48.670;6.184;2023-03-23T10:30:40;98489.78;;;18.28;48.27
50125;BME280;36023;48.670;6.184;2023-03-23T10:33:28;98486.25;;;18.29;48.33
50125;BME280;36023;48.670;6.184;2023-03-23T10:38:49;98489.16;;;18.25;48.29
50125;BME280;36023;48.670;6.184;2023-03-23T10:41:18;98489.16;;;18.25;48.30
50125;BME280;36023;48.670;6.184;2023-03-23T10:43:45;98484.75;;;18.25;48.56
50125;BME280;36023;48.670;6.184;2023-03-23T10:46:36;98483.69;;;18.28;48.44
50125;BME280;36023;48.670;6.184;2023-03-23T10:49:08;98481.94;;;18.28;48.48
50125;BME280;36023;48.670;6.184;2023-03-23T10:51:42;98482.78;;;18.29;48.32
50125;BME280;36023;48.670;6.184;2023-03-23T10:54:10;98488.88;;;18.29;48.47
50125;BME280;36023;48.670;6.184;2023-03-23T10:56:42;98482.78;;;18.29;48.57
50125;BME280;36023;48.670;6.184;2023-03-23T10:59:15;98488.94;;;18.28;48.58
50125;BME280;36023;48.670;6.184;2023-03-23T11:01:44;98488.03;;;18.29;48.73
50125;BME280;36023;48.670;6.184;2023-03-23T11:04:13;98478.41;;;18.29;48.51
50125;BME280;36023;48.670;6.184;2023-03-23T11:06:44;98483.63;;;18.29;48.38
50125;BME280;36023;48.670;6.184;2023-03-23T11:09:15;98484.75;;;18.25;48.35
50125;BME280;36023;48.670;6.184;2023-03-23T11:11:54;98486.44;;;18.26;48.62
50125;BME280;36023;48.670;6.184;2023-03-23T11:14:33;98489.03;;;18.26;48.46
50125;BME280;36023;48.670;6.184;2023-03-23T11:17:05;98484.75;;;18.25;48.17
50125;BME280;36023;48.670;6.184;2023-03-23T11:19:45;98473.69;;;18.20;48.03
50125;BME280;36023;48.670;6.184;2023-03-23T11:22:26;98470.31;;;18.18;48.09
50125;BME280;36023;48.670;6.184;2023-03-23T11:25:17;98484.38;;;18.17;47.92
50125;BME280;36023;48.670;6.184;2023-03-23T11:27:44;98480.06;;;18.16;47.89
50125;BME280;36023;48.670;6.184;2023-03-23T11:30:20;98480.06;;;18.16;47.78
50125;BME280;36023;48.670;6.184;2023-03-23T11:32:47;98484.47;;;18.16;48.06
50125;BME280;36023;48.670;6.184;2023-03-23T11:35:20;98483.53;;;18.17;48.17
50125;BME280;36023;48.670;6.184;2023-03-23T11:37:55;98484.38;;;18.17;47.93
50125;BME280;36023;48.670;6.184;2023-03-23T11:40:24;98474.72;;;18.18;48.22
50125;BME280;36023;48.670;6.184;2023-03-23T11:50:31;98476.59;;;18.16;47.65
50125;BME280;36023;48.670;6.184;2023-03-23T11:53:40;98474.81;;;18.16;47.73
50125;BME280;36023;48.670;6.184;2023-03-23T11:58:54;98473.88;;;18.17;47.80
50125;BME280;36023;48.670;6.184;2023-03-23T12:04:33;98467.69;;;18.18;47.83
50125;BME280;36023;48.670;6.184;2023-03-23T12:15:25;98434.47;;;18.19;47.92
50125;BME280;36023;48.670;6.184;2023-03-23T12:23:23;98419.78;;;18.16;47.86
50125;BME280;36023;48.670;6.184;2023-03-23T12:37:04;98393.38;;;18.19;47.54
50125;BME280;36023;48.670;6.184;2023-03-23T12:39:53;98394.31;;;18.18;47.68
50125;BME280;36023;48.670;6.184;2023-03-23T12:48:10;98389.06;;;18.18;47.32
50125;BME280;36023;48.670;6.184;2023-03-23T12:53:46;98387.41;;;18.17;46.97
50125;BME280;36023;48.670;6.184;2023-03-23T12:56:24;98383.09;;;18.16;47.31
50125;BME280;36023;48.670;6.184;2023-03-23T12:58:58;98378.59;;;18.18;47.25
50125;BME280;36023;48.670;6.184;2023-03-23T13:01:30;98375.97;;;18.18;47.32
50125;BME280;36023;48.670;6.184;2023-03-23T13:04:14;98381.22;;;18.18;47.22
50125;BME280;36023;48.670;6.184;2023-03-23T13:06:45;98376.91;;;18.17;47.23
50125;BME280;36023;48.670;6.184;2023-03-23T13:09:29;98363.81;;;18.17;47.16
50125;BME280;36023;48.670;6.184;2023-03-23T13:11:59;98344.63;;;18.17;47.27
50125;BME280;36023;48.670;6.184;2023-03-23T13:23:02;98329.00;;;18.15;47.23
50125;BME280;36023;48.670;6.184;2023-03-23T13:25:46;98327.31;;;18.14;46.97
50125;BME280;36023;48.670;6.184;2023-03-23T13:28:22;98343.03;;;18.14;47.08
50125;BME280;36023;48.670;6.184;2023-03-23T13:30:59;98348.28;;;18.14;47.18
50125;BME280;36023;48.670;6.184;2023-03-23T13:33:33;98345.66;;;18.14;47.12
50125;BME280;36023;48.670;6.184;2023-03-23T13:36:05;98342.09;;;18.15;47.18
50125;BME280;36023;48.670;6.184;2023-03-23T13:38:32;98338.66;;;18.15;47.17
50125;BME280;36023;48.670;6.184;2023-03-23T13:41:06;98342.09;;;18.15;47.14
50125;BME280;36023;48.670;6.184;2023-03-23T13:43:35;98336.88;;;18.15;47.17
50125;BME280;36023;48.670;6.184;2023-03-23T13:48:47;98336.88;;;18.15;47.48
50125;BME280;36023;48.670;6.184;2023-03-23T13:51:35;98333.31;;;18.16;47.59
50125;BME280;36023;48.670;6.184;2023-03-23T13:56:59;98333.31;;;18.16;47.30
50125;BME280;36023;48.670;6.184;2023-03-23T14:02:41;98335.09;;;18.16;47.37
50125;BME280;36023;48.670;6.184;2023-03-23T14:07:58;98329.00;;;18.15;47.18
50125;BME280;36023;48.670;6.184;2023-03-23T14:10:43;98326.38;;;18.15;47.64
50125;BME280;36023;48.670;6.184;2023-03-23T14:13:23;98321.97;;;18.16;47.25
50125;BME280;36023;48.670;6.184;2023-03-23T14:15:56;98316.63;;;18.17;47.54
50125;BME280;36023;48.670;6.184;2023-03-23T14:18:26;98319.38;;;18.16;47.42
50125;BME280;36023;48.670;6.184;2023-03-23T14:20:55;98314.13;;;18.16;47.44
50125;BME280;36023;48.670;6.184;2023-03-23T14:23:22;98308.88;;;18.16;47.56
50125;BME280;36023;48.670;6.184;2023-03-23T14:25:55;98308.78;;;18.17;47.54
50125;BME280;36023;48.670;6.184;2023-03-23T14:28:21;98314.97;;;18.16;47.54
50125;BME280;36023;48.670;6.184;2023-03-23T14:30:52;98314.97;;;18.16;47.69
50125;BME280;36023;48.670;6.184;2023-03-23T14:33:19;98312.34;;;18.16;47.31
50125;BME280;36023;48.670;6.184;2023-03-23T14:35:46;98310.66;;;18.15;47.37
50125;BME280;36023;48.670;6.184;2023-03-23T14:38:19;98319.38;;;18.16;47.43
50125;BME280;36023;48.670;6.184;2023-03-23T14:40:47;98316.84;;;18.14;47.36
50125;BME280;36023;48.670;6.184;2023-03-23T14:43:19;98322.09;;;18.14;47.59
50125;BME280;36023;48.670;6.184;2023-03-23T14:45:58;98326.50;;;18.14;47.31
50125;BME280;36023;48.670;6.184;2023-03-23T14:48:25;98334.41;;;18.12;47.40
50125;BME280;36023;48.670;6.184;2023-03-23T14:50:56;98335.25;;;18.13;47.85
50125;BME280;36023;48.670;6.184;2023-03-23T14:53:25;98329.00;;;18.15;47.99
50125;BME280;36023;48.670;6.184;2023-03-23T14:55:53;98321.03;;;18.17;48.12
50125;BME280;36023;48.670;6.184;2023-03-23T14:58:21;98309.50;;;18.19;48.15
50125;BME280;36023;48.670;6.184;2023-03-23T15:03:21;98297.19;;;18.21;48.39
50125;BME280;36023;48.670;6.184;2023-03-23T15:05:52;98289.22;;;18.23;48.56
50125;BME280;36023;48.670;6.184;2023-03-23T15:08:27;98303.16;;;18.23;48.35
50125;BME280;36023;48.670;6.184;2023-03-23T15:11:05;98302.22;;;18.24;48.63
50125;BME280;36023;48.670;6.184;2023-03-23T15:13:32;98315.22;;;18.26;48.68
50125;BME280;36023;48.670;6.184;2023-03-23T15:16:07;98316.06;;;18.26;48.67
50125;BME280;36023;48.670;6.184;2023-03-23T15:18:39;98309.03;;;18.27;48.61
50125;BME280;36023;48.670;6.184;2023-03-23T15:21:22;98311.47;;;18.30;48.83
50125;BME280;36023;48.670;6.184;2023-03-23T15:23:47;98314.81;;;18.32;49.01